Česky Dansk Deutsch English Español Suomi Français Magyar Italiano Nederlands norsk Polski Português svenska Türkçe

 

Het Weer

Hodeidah (Yemen)

22:00, 25 maart 2015 (GMT)

NWNNE
WE
SWSSE
Thuis            
Hodeidah Sana'A Mokha Taiz Assab Mokha Gizan Al-Hazm Sa'Ada / Sadah Marib Aden Najran Djibouti Djibouti \ Ambouli Abha Massawa Khamis Mushait Makale Ataq Asmara Axum Berbera Sharurah

Om een weerknop op uw website of weblog te plaatsen, copieer onderstaande code en plak die in uw pagina. In het eerste vakje staat HTML-code, in het tweede vakje UBB-code.


Add to Google

Details

Windsnelheid:1 bf, 3 kn, 1.5 m/s, 3.5 miles/h, 5.6 km/h
Windrichting:OZO, 120° - Z, 180°
Zicht: 8000 m, 8.0 km, 26247 ft, 5.0 miles
Temperatuur:27°C, 81°F
Gevoelstemperatuur:31°C, 87°F
Dauwpunt:24°C, 75°F
Luchtdruk:1010 hPa, 757.6 mmHg, 29.83 inHg, 0.997 atm
Relative luchtvochtigheid:83.7 %
METAR:OYHD 252200Z 15003KT 120V180 8000 NSC 27/24 Q1010

Snelkoppelingen

Actuele weersinformatie van de hele wereld. Voeg locaties toe met het plus (+) symbool. Deze snelkoppelingen kunnen worden toegevoegd aan Google.

Lid van de Technetium groep

website free tracking
StatCounter NetStat W3C Validator

17-04-2021 10:49:55
astro.technetium.be money.technetium.be phote.technetium.be tafeltennistafel.technetium.be www.ligfiets.net